createdAt,value
2018-04-13T00:00:32.673Z,47.60
2018-04-13T00:03:00.913Z,49.30
2018-04-13T00:05:28.674Z,47.73
2018-04-13T00:07:56.245Z,47.73
2018-04-13T00:10:23.789Z,49.73
2018-04-13T00:12:51.317Z,51.53
2018-04-13T00:15:18.925Z,49.13
2018-04-13T00:17:46.585Z,47.67
2018-04-13T00:20:14.251Z,46.97
2018-04-13T00:22:41.907Z,45.80
2018-04-13T00:25:09.528Z,51.13
2018-04-13T00:27:37.071Z,43.33
2018-04-13T00:30:04.604Z,47.77
2018-04-13T00:32:32.252Z,45.97
2018-04-13T00:35:01.927Z,46.83
2018-04-13T00:37:31.908Z,50.77
2018-04-13T00:40:00.534Z,45.97
2018-04-13T00:42:28.072Z,48.33
2018-04-13T00:44:55.632Z,54.60
2018-04-13T00:47:23.196Z,51.53
2018-04-13T00:49:50.880Z,49.93
2018-04-13T00:52:18.510Z,49.53
2018-04-13T00:54:46.195Z,55.53
2018-04-13T00:57:14.808Z,49.73
2018-04-13T00:59:42.530Z,53.93
2018-04-13T01:02:10.097Z,51.17
2018-04-13T01:04:37.631Z,52.63
2018-04-13T01:07:05.312Z,54.10
2018-04-13T01:09:33.748Z,49.57
2018-04-13T01:12:01.309Z,49.00
2018-04-13T01:14:29.520Z,47.63
2018-04-13T01:16:57.068Z,55.97
2018-04-13T01:19:24.604Z,50.27
2018-04-13T01:21:52.143Z,50.33
2018-04-13T01:24:19.783Z,45.90
2018-04-13T01:26:48.131Z,51.53
2018-04-13T01:29:16.984Z,52.63
2018-04-13T01:31:45.303Z,47.87
2018-04-13T01:34:12.911Z,47.93
2018-04-13T01:36:40.521Z,48.20
2018-04-13T01:39:08.184Z,51.53
2018-04-13T01:41:35.816Z,52.93
2018-04-13T01:44:03.920Z,52.60
2018-04-13T01:46:32.364Z,52.50
2018-04-13T01:49:00.791Z,50.17
2018-04-13T01:51:28.345Z,52.13
2018-04-13T01:53:55.863Z,50.00
2018-04-13T01:56:23.416Z,51.87
2018-04-13T01:58:52.091Z,52.60
2018-04-13T02:01:20.953Z,49.40
2018-04-13T02:03:51.899Z,50.70
2018-04-13T02:06:25.979Z,52.00
2018-04-13T02:08:57.073Z,48.53
2018-04-13T02:11:24.652Z,46.93
2018-04-13T02:13:52.307Z,48.53
2018-04-13T02:16:19.987Z,48.73
2018-04-13T02:18:48.516Z,48.23
2018-04-13T02:21:17.842Z,46.53
2018-04-13T02:23:45.435Z,47.43
2018-04-13T02:26:12.969Z,53.10
2018-04-13T02:28:40.532Z,48.67
2018-04-13T02:31:08.059Z,46.90
2018-04-13T02:33:35.919Z,51.37
2018-04-13T02:36:03.952Z,47.67
2018-04-13T02:38:32.502Z,55.60
2018-04-13T02:41:00.786Z,52.73
2018-04-13T02:43:28.343Z,51.77
2018-04-13T02:45:55.888Z,48.33
2018-04-13T02:48:23.514Z,48.90
2018-04-13T02:50:51.124Z,49.60
2018-04-13T02:53:18.734Z,50.60
2018-04-13T02:55:46.467Z,50.97
2018-04-13T02:58:14.211Z,49.67
2018-04-13T03:00:41.860Z,55.33
2018-04-13T03:03:09.396Z,50.80
2018-04-13T03:05:36.941Z,49.53
2018-04-13T03:08:05.512Z,50.77
2018-04-13T03:10:33.876Z,48.43
2018-04-13T03:13:01.461Z,52.57
2018-04-13T03:15:29.950Z,57.90
2018-04-13T03:17:57.515Z,51.77
2018-04-13T03:20:25.064Z,51.53
2018-04-13T03:22:52.580Z,52.03
2018-04-13T03:25:21.028Z,52.77
2018-04-13T03:27:49.989Z,55.83
2018-04-13T03:30:17.584Z,54.23
2018-04-13T03:32:45.874Z,54.10
2018-04-13T03:35:13.391Z,54.23
2018-04-13T03:37:40.973Z,56.87
2018-04-13T03:40:08.523Z,57.10
2018-04-13T03:42:36.963Z,57.47
2018-04-13T03:45:06.229Z,54.07
2018-04-13T03:47:34.608Z,53.10
2018-04-13T03:50:03.902Z,59.90
2018-04-13T03:52:31.523Z,54.23
2018-04-13T03:54:59.093Z,53.37
2018-04-13T03:57:26.739Z,56.37
2018-04-13T03:59:54.377Z,56.67
2018-04-13T04:02:22.130Z,56.23
2018-04-13T04:04:51.851Z,51.73
2018-04-13T04:07:20.397Z,54.93
2018-04-13T04:09:48.019Z,57.90
2018-04-13T04:12:15.583Z,63.07
2018-04-13T04:14:43.150Z,58.17
2018-04-13T04:17:10.805Z,55.70
2018-04-13T04:19:52.122Z,55.07
2018-04-13T04:22:32.001Z,51.70
2018-04-13T04:25:11.458Z,57.37
2018-04-13T04:27:38.980Z,54.97
2018-04-13T04:30:06.580Z,57.37
2018-04-13T04:32:34.192Z,59.13
2018-04-13T04:35:01.830Z,58.67
2018-04-13T04:37:30.383Z,54.80
2018-04-13T04:39:58.064Z,57.10
2018-04-13T04:42:25.775Z,53.80
2018-04-13T04:44:53.331Z,60.57
2018-04-13T04:47:22.540Z,63.73
2018-04-13T04:49:50.153Z,58.53
2018-04-13T04:52:17.761Z,61.03
2018-04-13T04:54:46.408Z,62.50
2018-04-13T04:57:15.465Z,62.10
2018-04-13T04:59:43.075Z,64.97
2018-04-13T05:02:10.603Z,66.97
2018-04-13T05:04:38.124Z,61.20
2018-04-13T05:07:05.796Z,58.90
2018-04-13T05:09:33.384Z,57.53
2018-04-13T05:12:02.422Z,58.37
2018-04-13T05:14:35.999Z,63.33
2018-04-13T05:17:03.551Z,63.43
2018-04-13T05:19:31.087Z,58.30
2018-04-13T05:21:58.616Z,60.47
2018-04-13T05:24:26.180Z,61.17
2018-04-13T05:26:53.772Z,60.27
2018-04-13T05:29:21.439Z,57.93
2018-04-13T05:31:49.652Z,61.60
2018-04-13T05:34:17.155Z,65.87
2018-04-13T05:36:44.679Z,63.50
2018-04-13T05:39:12.199Z,60.37
2018-04-13T05:41:39.763Z,58.87
2018-04-13T05:44:08.600Z,57.40
2018-04-13T05:46:36.942Z,57.60
2018-04-13T05:49:06.503Z,59.90
2018-04-13T05:51:34.693Z,64.80
2018-04-13T05:54:02.252Z,67.70
2018-04-13T05:56:29.813Z,66.77
2018-04-13T05:58:57.456Z,68.13
2018-04-13T06:01:26.241Z,66.87
2018-04-13T06:03:55.000Z,63.87
2018-04-13T06:06:24.878Z,62.13
2018-04-13T06:08:52.409Z,72.97
2018-04-13T06:11:19.941Z,70.23
2018-04-13T06:13:47.467Z,74.13
2018-04-13T06:16:15.072Z,71.23
2018-04-13T06:18:43.593Z,70.03
2018-04-13T06:21:12.088Z,67.53
2018-04-13T06:23:40.962Z,67.63
2018-04-13T06:26:08.728Z,66.43
2018-04-13T06:28:36.228Z,74.30
2018-04-13T06:31:03.834Z,69.43
2018-04-13T06:33:31.399Z,74.23
2018-04-13T06:35:59.829Z,71.57
2018-04-13T06:38:28.611Z,69.80
2018-04-13T06:40:56.434Z,69.30
2018-04-13T06:43:24.010Z,71.20
2018-04-13T06:45:51.532Z,74.00
2018-04-13T06:48:19.043Z,76.97
2018-04-13T06:50:46.698Z,74.47
2018-04-13T06:53:14.340Z,70.97
2018-04-13T06:55:42.839Z,70.00
2018-04-13T06:58:10.667Z,75.27
2018-04-13T07:00:38.323Z,79.93
2018-04-13T07:03:05.905Z,84.10
2018-04-13T07:05:33.529Z,81.17
2018-04-13T07:08:06.971Z,77.47
2018-04-13T07:10:39.342Z,74.47
2018-04-13T07:13:08.786Z,83.63
2018-04-13T07:15:40.604Z,73.17
2018-04-13T07:18:08.987Z,82.63
2018-04-13T07:20:36.639Z,70.30
2018-04-13T07:23:04.179Z,74.63
2018-04-13T07:25:31.780Z,78.33
2018-04-13T07:28:01.777Z,69.83
2018-04-13T07:30:32.051Z,70.67
2018-04-13T07:33:00.553Z,71.00
2018-04-13T07:35:28.088Z,84.17
2018-04-13T07:37:55.658Z,81.87
2018-04-13T07:40:23.255Z,74.20
2018-04-13T07:42:50.848Z,76.37
2018-04-13T07:45:20.281Z,82.13
2018-04-13T07:47:48.193Z,81.57
2018-04-13T07:50:16.920Z,84.17
2018-04-13T07:52:44.147Z,81.87
2018-04-13T07:55:11.695Z,77.10
2018-04-13T07:57:39.220Z,73.10
2018-04-13T08:00:06.800Z,80.67
2018-04-13T08:02:34.825Z,78.53
2018-04-13T08:05:02.798Z,69.97
2018-04-13T08:07:30.513Z,74.07
2018-04-13T08:09:58.990Z,79.00
2018-04-13T08:12:26.544Z,72.80
2018-04-13T08:14:54.092Z,74.03
2018-04-13T08:17:21.713Z,69.73
2018-04-13T08:19:49.848Z,75.70
2018-04-13T08:22:20.380Z,72.93
2018-04-13T08:24:53.059Z,79.13
2018-04-13T08:27:20.623Z,75.60
2018-04-13T08:29:48.212Z,72.80
2018-04-13T08:32:15.732Z,75.13
2018-04-13T08:34:43.322Z,71.13
2018-04-13T08:37:13.310Z,83.37
2018-04-13T08:42:46.006Z,65.57
2018-04-13T08:45:13.586Z,67.07
2018-04-13T08:47:41.155Z,76.80
2018-04-13T08:50:08.711Z,70.57
2018-04-13T08:52:42.905Z,70.10
2018-04-13T08:58:09.784Z,69.13
2018-04-13T09:00:40.632Z,66.07
2018-04-13T09:03:08.166Z,74.70
2018-04-13T09:05:35.673Z,61.27
2018-04-13T09:08:03.246Z,69.93
2018-04-13T09:10:32.952Z,62.43
2018-04-13T09:18:19.698Z,57.63
2018-04-13T09:20:47.296Z,59.17
2018-04-13T09:23:14.854Z,61.70
2018-04-13T09:25:42.431Z,59.10
2018-04-13T09:28:14.248Z,61.47
2018-04-13T09:30:46.133Z,58.93
2018-04-13T09:33:15.788Z,64.00
2018-04-13T09:35:43.359Z,59.83
2018-04-13T09:38:10.924Z,59.03
2018-04-13T09:40:38.633Z,54.10
2018-04-13T09:43:06.295Z,57.40
2018-04-13T09:45:33.980Z,53.13
2018-04-13T09:48:04.484Z,59.50
2018-04-13T09:50:36.250Z,45.00
2018-04-13T09:53:03.775Z,53.50
2018-04-13T09:55:31.324Z,49.73
2018-04-13T09:57:58.864Z,50.40
2018-04-13T10:00:30.595Z,50.07
2018-04-13T10:03:04.488Z,51.10
2018-04-13T10:05:33.097Z,48.57
2018-04-13T10:08:05.195Z,47.97
2018-04-13T10:10:32.747Z,54.23
2018-04-13T10:13:00.357Z,56.90
2018-04-13T10:15:27.984Z,57.90
2018-04-13T10:17:55.611Z,59.50
2018-04-13T10:20:24.377Z,63.63
2018-04-13T10:22:56.072Z,61.73
2018-04-13T10:25:23.741Z,59.77
2018-04-13T10:27:51.251Z,50.23
2018-04-13T10:30:18.898Z,44.57
2018-04-13T10:32:46.419Z,43.57
2018-04-13T10:35:13.988Z,44.13
2018-04-13T10:37:45.830Z,32.97
2018-04-13T10:42:49.060Z,32.70
2018-04-13T10:45:16.615Z,35.73
2018-04-13T10:47:44.246Z,32.27
2018-04-13T10:50:11.804Z,48.80
2018-04-13T10:52:39.432Z,52.07
2018-04-13T10:55:12.074Z,45.47
2018-04-13T10:57:48.355Z,49.90
2018-04-13T11:00:17.818Z,53.50
2018-04-13T11:02:45.459Z,51.13
2018-04-13T11:05:13.121Z,49.67
2018-04-13T11:07:40.667Z,56.17
2018-04-13T11:10:08.387Z,50.77
2018-04-13T11:12:41.113Z,49.80
2018-04-13T11:15:12.371Z,48.53
2018-04-13T11:17:45.997Z,46.80
2018-04-13T11:20:13.657Z,50.37
2018-04-13T11:22:41.374Z,47.10
2018-04-13T11:25:08.997Z,46.97
2018-04-13T11:27:37.760Z,44.00
2018-04-13T11:30:08.803Z,42.07
2018-04-13T11:32:43.923Z,40.40
2018-04-13T11:35:17.324Z,47.97
2018-04-13T11:37:44.930Z,42.87
2018-04-13T11:40:12.524Z,41.73
2018-04-13T11:42:40.145Z,40.83
2018-04-13T11:45:13.855Z,50.80
2018-04-13T11:47:49.047Z,51.63
2018-04-13T11:50:20.178Z,51.67
2018-04-13T11:52:50.133Z,52.63
2018-04-13T11:55:17.708Z,55.57
2018-04-13T11:57:45.269Z,52.73
2018-04-13T12:00:12.897Z,53.20
2018-04-13T12:02:46.085Z,54.47
2018-04-13T12:05:14.108Z,54.03
2018-04-13T12:07:44.451Z,59.57
2018-04-13T12:10:16.967Z,53.70
2018-04-13T12:12:44.596Z,54.53
2018-04-13T12:15:12.123Z,51.70
2018-04-13T12:17:39.653Z,56.93
2018-04-13T12:20:08.355Z,60.43
2018-04-13T12:22:37.730Z,54.93
2018-04-13T12:25:09.811Z,61.53
2018-04-13T12:27:40.255Z,59.87
2018-04-13T12:30:07.829Z,56.57
2018-04-13T12:32:35.444Z,50.93
2018-04-13T12:35:03.181Z,54.53
2018-04-13T12:37:33.105Z,62.97
2018-04-13T12:40:04.982Z,54.77
2018-04-13T12:42:36.497Z,58.53
2018-04-13T12:45:04.051Z,59.13
2018-04-13T12:47:31.623Z,58.67
2018-04-13T12:49:59.243Z,57.17
2018-04-13T12:52:26.867Z,56.63
2018-04-13T12:55:01.357Z,59.47
2018-04-13T12:57:40.731Z,63.37
2018-04-13T13:00:08.368Z,59.43
2018-04-13T13:02:36.107Z,63.47
2018-04-13T13:05:03.623Z,60.20
2018-04-13T13:07:41.530Z,62.47
2018-04-13T13:10:09.075Z,58.60
2018-04-13T13:12:36.700Z,62.47
2018-04-13T13:15:05.944Z,57.43
2018-04-13T13:17:33.563Z,56.00
2018-04-13T13:20:01.107Z,59.57
2018-04-13T13:22:28.699Z,58.20
2018-04-13T13:24:56.250Z,59.70
2018-04-13T13:27:23.815Z,63.23
2018-04-13T13:30:05.755Z,55.43
2018-04-13T13:32:33.375Z,53.00
2018-04-13T13:37:49.998Z,54.67
2018-04-13T13:40:17.522Z,57.87
2018-04-13T13:42:45.036Z,51.23
2018-04-13T13:45:12.655Z,54.90
2018-04-13T15:01:48.161Z,52.93
2018-04-13T15:04:15.797Z,55.20
2018-04-13T15:06:44.313Z,50.20
2018-04-13T15:09:12.416Z,54.43
2018-04-13T15:11:39.949Z,52.50
2018-04-13T15:17:04.071Z,55.57
2018-04-13T15:22:21.451Z,53.47
2018-04-13T15:24:49.965Z,54.93
2018-04-13T15:27:19.178Z,56.47
2018-04-13T15:40:56.716Z,49.77
2018-04-13T15:43:24.268Z,42.57
2018-04-13T15:45:51.815Z,52.40
2018-04-13T15:54:06.780Z,47.80
2018-04-13T15:56:35.017Z,51.40
2018-04-13T15:59:02.668Z,47.13
2018-04-13T16:01:30.263Z,42.97
2018-04-13T16:03:57.837Z,48.70
2018-04-13T16:14:51.181Z,48.47
2018-04-13T16:17:18.855Z,44.07
2018-04-13T16:19:46.378Z,45.40
2018-04-13T16:22:14.956Z,45.13
2018-04-13T16:24:53.482Z,50.80
2018-04-13T16:30:17.036Z,48.43
2018-04-13T16:32:44.600Z,42.67
2018-04-13T16:35:12.152Z,45.23
2018-04-13T16:37:39.696Z,42.80
2018-04-13T16:40:09.053Z,45.20
2018-04-13T16:42:41.215Z,41.57
2018-04-13T16:45:12.206Z,39.67
2018-04-13T16:47:41.868Z,49.87
2018-04-13T16:50:10.082Z,40.03
2018-04-13T16:52:37.630Z,40.47
2018-04-13T16:55:05.189Z,44.00
2018-04-13T16:57:42.414Z,43.10
2018-04-13T17:02:53.895Z,41.50
2018-04-13T17:05:24.392Z,38.93
2018-04-13T17:07:52.877Z,44.30
2018-04-13T17:10:20.463Z,44.63
2018-04-13T17:12:48.042Z,39.60
2018-04-13T17:15:18.005Z,40.50
2018-04-13T17:17:45.834Z,49.33
2018-04-13T17:20:16.271Z,45.63
2018-04-13T17:22:46.524Z,39.53
2018-04-13T17:25:15.095Z,38.43
2018-04-13T17:27:42.628Z,35.67
2018-04-13T17:30:10.171Z,35.97
2018-04-13T17:32:42.517Z,41.57
2018-04-13T17:35:13.040Z,39.60
2018-04-13T17:37:46.040Z,42.13
2018-04-13T17:40:14.420Z,39.57
2018-04-13T17:42:43.091Z,40.90
2018-04-13T17:45:10.613Z,43.97
2018-04-13T17:47:38.176Z,43.53
2018-04-13T17:50:06.719Z,38.07
2018-04-13T17:52:37.483Z,40.53
2018-04-13T17:55:06.637Z,49.30
2018-04-13T17:57:35.339Z,47.07
2018-04-13T18:00:02.939Z,49.53
2018-04-13T18:02:30.512Z,49.13
2018-04-13T18:04:58.089Z,45.73
2018-04-13T18:07:32.894Z,44.20
2018-04-13T18:10:04.659Z,44.50
2018-04-13T18:12:36.887Z,49.70
2018-04-13T18:15:04.436Z,45.87
2018-04-13T18:17:31.985Z,46.07
2018-04-13T18:19:59.546Z,52.43
2018-04-13T18:22:27.115Z,53.97
2018-04-13T18:32:54.035Z,50.30
2018-04-13T18:35:21.563Z,52.27
2018-04-13T18:37:49.138Z,54.27
2018-04-13T18:40:16.910Z,57.13
2018-04-13T18:48:09.222Z,52.70
2018-04-13T18:50:36.900Z,48.87
2018-04-13T18:53:04.443Z,51.10
2018-04-13T18:55:32.073Z,54.93
2018-04-13T18:58:06.740Z,46.33
2018-04-13T19:00:40.438Z,56.63
2018-04-13T19:03:12.606Z,54.63
2018-04-13T19:05:44.628Z,55.03
2018-04-13T19:08:12.176Z,59.90
2018-04-13T19:10:39.739Z,62.43
2018-04-13T19:13:07.330Z,59.83
2018-04-13T19:15:37.968Z,61.00
2018-04-13T19:18:09.277Z,60.13
2018-04-13T19:20:40.421Z,64.83
2018-04-13T19:23:12.862Z,61.63
2018-04-13T19:25:40.493Z,68.27
2018-04-13T19:28:08.023Z,52.90
2018-04-13T19:30:35.576Z,64.73
2018-04-13T19:33:05.287Z,62.57
2018-04-13T19:35:36.808Z,67.37
2018-04-13T19:38:09.411Z,59.13
2018-04-13T19:40:37.994Z,62.87
2018-04-13T19:43:05.567Z,58.70
2018-04-13T19:45:33.137Z,61.83
2018-04-13T19:48:00.698Z,68.63
2018-04-13T19:50:32.118Z,66.23
2018-04-13T19:53:04.714Z,62.97
2018-04-13T19:58:09.120Z,65.83
2018-04-13T20:00:36.720Z,66.30
2018-04-13T20:03:04.272Z,63.10
2018-04-13T20:05:31.849Z,63.73
2018-04-13T20:10:33.431Z,61.20
2018-04-13T20:13:05.152Z,65.70
2018-04-13T20:15:32.758Z,63.90
2018-04-13T20:18:00.346Z,64.77
2018-04-13T20:20:27.874Z,66.33
2018-04-13T20:22:55.468Z,62.73
2018-04-13T20:25:25.272Z,58.53
2018-04-13T20:27:56.633Z,63.97
2018-04-13T20:30:25.298Z,61.83
2018-04-13T20:32:52.834Z,61.93
2018-04-13T20:35:20.365Z,60.17
2018-04-13T20:37:47.916Z,62.13
2018-04-13T20:40:15.523Z,63.23
2018-04-13T20:42:48.476Z,62.43
2018-04-13T20:45:20.424Z,65.00
2018-04-13T20:47:50.509Z,65.30
2018-04-13T20:50:19.115Z,65.33
2018-04-13T20:52:46.690Z,67.77
2018-04-13T20:55:14.265Z,65.03
2018-04-13T20:57:41.803Z,58.00
2018-04-13T21:00:10.125Z,64.47
2018-04-13T21:02:40.413Z,65.53
2018-04-13T21:05:12.315Z,66.43
2018-04-13T21:07:39.829Z,65.13
2018-04-13T21:10:07.387Z,62.33
2018-04-13T21:12:34.968Z,69.27
2018-04-13T21:15:02.533Z,61.87
2018-04-13T21:17:30.137Z,67.27
2018-04-13T21:20:00.406Z,61.63
2018-04-13T21:22:32.295Z,60.57
2018-04-13T21:25:02.475Z,63.23
2018-04-13T21:27:42.846Z,64.63
2018-04-13T21:30:10.456Z,59.67
2018-04-13T21:32:38.174Z,56.20
2018-04-13T21:35:06.155Z,65.03
2018-04-13T21:37:36.964Z,63.27
2018-04-13T21:40:10.039Z,57.40
2018-04-13T21:42:37.595Z,56.53
2018-04-13T21:45:05.096Z,57.87
2018-04-13T21:47:32.647Z,57.43
2018-04-13T21:50:00.207Z,58.03
2018-04-13T21:52:30.390Z,58.30
2018-04-13T21:54:58.117Z,61.70
2018-04-13T21:57:27.649Z,56.77
2018-04-13T21:59:55.183Z,59.40
2018-04-13T22:02:22.730Z,56.83
2018-04-13T22:04:50.266Z,53.20
2018-04-13T22:07:17.895Z,56.93
2018-04-13T22:09:46.227Z,57.03
2018-04-13T22:12:29.168Z,53.53
2018-04-13T22:15:01.646Z,56.77
2018-04-13T22:17:29.234Z,55.60
2018-04-13T22:19:56.792Z,52.13
2018-04-13T22:22:24.323Z,50.80
2018-04-13T22:24:51.887Z,54.43
2018-04-13T22:27:21.110Z,55.53
2018-04-13T22:29:50.464Z,54.03
2018-04-13T22:32:18.095Z,54.80
2018-04-13T22:34:45.666Z,54.77
2018-04-13T22:37:13.210Z,58.47
2018-04-13T22:39:40.775Z,55.30
2018-04-13T22:42:08.362Z,54.40
2018-04-13T22:44:38.495Z,54.37
2018-04-13T22:47:06.069Z,57.50
2018-04-13T22:49:36.496Z,57.60
2018-04-13T22:52:04.021Z,56.27
2018-04-13T22:54:31.506Z,55.70
2018-04-13T22:56:59.074Z,57.03
2018-04-13T22:59:26.734Z,62.40
2018-04-13T23:01:54.269Z,63.37
2018-04-13T23:04:21.931Z,65.77
2018-04-13T23:06:50.481Z,54.63
2018-04-13T23:09:18.048Z,54.27
2018-04-13T23:11:45.986Z,56.03
2018-04-13T23:14:13.538Z,55.33
2018-04-13T23:16:41.079Z,58.33
2018-04-13T23:19:09.585Z,55.47
2018-04-13T23:21:38.323Z,56.60
2018-04-13T23:24:05.888Z,57.53
2018-04-13T23:26:33.414Z,56.10
2018-04-13T23:29:00.991Z,57.37
2018-04-13T23:31:28.531Z,58.30
2018-04-13T23:33:56.263Z,57.27
2018-04-13T23:36:26.307Z,58.97
2018-04-13T23:38:54.569Z,54.53
2018-04-13T23:41:24.795Z,56.17
2018-04-13T23:43:53.290Z,58.93
2018-04-13T23:46:21.062Z,58.27
2018-04-13T23:48:48.631Z,57.43
2018-04-13T23:51:16.155Z,55.57
2018-04-13T23:53:46.108Z,63.30
2018-04-13T23:56:14.615Z,65.67
2018-04-13T23:58:46.372Z,64.03
